Terminal Aerodrome Forecast
Issued by NWS

Home | Current Version | Previous Version | Text Only | Print | Product List | Glossary On
Versions: 1 2 3 4 5 6 7 8 9 10 11 12 13 14 15 16 17 18 19
756
FTUS43 KLSX 161739
TAFUIN
TAF
KUIN 161739Z 1618/1718 16010KT P6SM VCTS BKN060CB
      TEMPO 1618/1621 VRB15G25KT +TSRA BKN015CB
     FM170000 18010KT P6SM SHRA OVC040
     FM170600 19007KT P6SM -SHRA VCTS OVC025CB
     FM170700 20008KT P6SM VCTS OVC015CB
     FM171200 22007KT P6SM BKN010
     FM171600 24009KT P6SM BKN050=

USA.gov is the U.S. government's official web portal to all federal, state and local government web resources and services.